Granada Hills, California
Current Conditions -  °F | °C
As of 12:51 AM on Thursday 18 Dec 2014 (Local Time) from KVNY Reporting Station
Clear Clear  
Wind Chill: 48°   Ceiling: Unl
Heat Index: 48°   Visibility: 10mi
Dew Point: 43°   Wind: 0mph
Humidity: 83%   Direction: NA
Pressure: 30.1"   Gusts: NA
Location:  34.26°N, 118.52°W
Report Text: KVNY 180851Z AUTO 00000KT 10SM CLR 09/06 A3010 RMK AO2 SLP191 T00890061 51000
Loading
Personal Weather Stations






























Interactive Weather Map New forecast layout! Learn more

10-Day Weather Forecast

Advertisements
Track Severe Weather on mobile